KMFV/MFV METAR and TAF weather

Enter ICAO airport designator
Station Type Date Time Source
KMFV METAR 2022/09/26 08:55 UTC NOAA

KMFV 260855Z AUTO 00000KT 10SM SCT016 17/16 A2975 RMK AO2 T01740155


Station Type Date Time Source
KMFV Decoded METAR 2022/09/26 08:55 UTC NOAA

Melfa / Accomack Airport, VA, United States (KMFV) 37-39N 075-46W
Sep 26, 2022 - 04:55 AM EDT / 2022.09.26 0855 UTC
Wind: Calm:0
Visibility: 10 mile(s):0
Sky conditions: partly cloudy
Temperature: 63.3 F (17.4 C)
Dew Point: 59.9 F (15.5 C)
Relative Humidity: 88%
Pressure (altimeter): 29.75 in. Hg (1007 hPa)
ob: KMFV 260855Z AUTO 00000KT 10SM SCT016 17/16 A2975 RMK AO2 T01740155
cycle: 9

Station Type Date Time Source
KMFV TAF UTC NOAA

Error!

Example: see airport list